sensor_id;sensor_type;location;lat;lon;timestamp;P1;durP1;ratioP1;P2;durP2;ratioP2
12970;SDS011;6550;48.650;8.774;2024-02-23T00:02:15;5.07;;;0.60;;
12970;SDS011;6550;48.650;8.774;2024-02-23T00:04:42;7.07;;;0.60;;
12970;SDS011;6550;48.650;8.774;2024-02-23T00:07:09;2.70;;;0.30;;
12970;SDS011;6550;48.650;8.774;2024-02-23T00:09:38;1.80;;;0.45;;
12970;SDS011;6550;48.650;8.774;2024-02-23T00:12:04;1.27;;;0.50;;
12970;SDS011;6550;48.650;8.774;2024-02-23T00:14:34;3.83;;;0.50;;
12970;SDS011;6550;48.650;8.774;2024-02-23T00:17:04;3.90;;;0.40;;
12970;SDS011;6550;48.650;8.774;2024-02-23T00:19:36;0.97;;;0.37;;
12970;SDS011;6550;48.650;8.774;2024-02-23T00:22:03;3.53;;;0.50;;
12970;SDS011;6550;48.650;8.774;2024-02-23T00:24:36;1.90;;;0.37;;
12970;SDS011;6550;48.650;8.774;2024-02-23T00:27:06;1.93;;;0.40;;
12970;SDS011;6550;48.650;8.774;2024-02-23T00:29:33;0.30;;;0.30;;
12970;SDS011;6550;48.650;8.774;2024-02-23T00:32:00;0.30;;;0.30;;
12970;SDS011;6550;48.650;8.774;2024-02-23T00:34:28;0.43;;;0.27;;
12970;SDS011;6550;48.650;8.774;2024-02-23T00:36:56;0.67;;;0.43;;
12970;SDS011;6550;48.650;8.774;2024-02-23T00:39:23;0.87;;;0.40;;
12970;SDS011;6550;48.650;8.774;2024-02-23T00:41:52;3.10;;;0.60;;
12970;SDS011;6550;48.650;8.774;2024-02-23T00:44:19;0.60;;;0.50;;
12970;SDS011;6550;48.650;8.774;2024-02-23T00:46:49;0.63;;;0.37;;
12970;SDS011;6550;48.650;8.774;2024-02-23T00:49:16;0.40;;;0.40;;
12970;SDS011;6550;48.650;8.774;2024-02-23T00:51:43;1.20;;;0.37;;
12970;SDS011;6550;48.650;8.774;2024-02-23T00:54:10;0.93;;;0.30;;
12970;SDS011;6550;48.650;8.774;2024-02-23T00:56:36;1.63;;;0.43;;
12970;SDS011;6550;48.650;8.774;2024-02-23T00:59:16;1.13;;;0.40;;
12970;SDS011;6550;48.650;8.774;2024-02-23T01:01:43;2.37;;;0.53;;
12970;SDS011;6550;48.650;8.774;2024-02-23T01:04:14;0.87;;;0.43;;
12970;SDS011;6550;48.650;8.774;2024-02-23T01:06:41;2.17;;;0.40;;
12970;SDS011;6550;48.650;8.774;2024-02-23T01:09:10;0.70;;;0.33;;
12970;SDS011;6550;48.650;8.774;2024-02-23T01:11:37;1.17;;;0.57;;
12970;SDS011;6550;48.650;8.774;2024-02-23T01:14:04;6.67;;;0.60;;
12970;SDS011;6550;48.650;8.774;2024-02-23T01:16:33;0.30;;;0.20;;
12970;SDS011;6550;48.650;8.774;2024-02-23T01:19:04;1.15;;;0.35;;
12970;SDS011;6550;48.650;8.774;2024-02-23T01:21:36;0.30;;;0.30;;
12970;SDS011;6550;48.650;8.774;2024-02-23T01:24:05;1.70;;;0.73;;
12970;SDS011;6550;48.650;8.774;2024-02-23T01:26:32;0.70;;;0.30;;
12970;SDS011;6550;48.650;8.774;2024-02-23T01:28:59;4.03;;;0.53;;
12970;SDS011;6550;48.650;8.774;2024-02-23T01:31:25;1.30;;;0.50;;
12970;SDS011;6550;48.650;8.774;2024-02-23T01:33:53;1.07;;;0.60;;
12970;SDS011;6550;48.650;8.774;2024-02-23T01:36:20;2.23;;;0.40;;
12970;SDS011;6550;48.650;8.774;2024-02-23T01:38:49;4.47;;;0.73;;
12970;SDS011;6550;48.650;8.774;2024-02-23T01:41:16;3.77;;;0.40;;
12970;SDS011;6550;48.650;8.774;2024-02-23T01:43:42;4.70;;;0.50;;
12970;SDS011;6550;48.650;8.774;2024-02-23T01:46:09;3.00;;;0.60;;
12970;SDS011;6550;48.650;8.774;2024-02-23T01:48:36;3.30;;;0.67;;
12970;SDS011;6550;48.650;8.774;2024-02-23T01:51:03;0.83;;;0.50;;
12970;SDS011;6550;48.650;8.774;2024-02-23T01:53:30;1.63;;;0.57;;
12970;SDS011;6550;48.650;8.774;2024-02-23T01:55:59;2.23;;;0.50;;
12970;SDS011;6550;48.650;8.774;2024-02-23T01:58:28;2.37;;;0.37;;
12970;SDS011;6550;48.650;8.774;2024-02-23T02:00:57;1.10;;;0.57;;
12970;SDS011;6550;48.650;8.774;2024-02-23T02:03:24;1.13;;;0.33;;
12970;SDS011;6550;48.650;8.774;2024-02-23T02:05:51;0.57;;;0.40;;
12970;SDS011;6550;48.650;8.774;2024-02-23T02:08:19;1.07;;;0.50;;
12970;SDS011;6550;48.650;8.774;2024-02-23T02:10:46;1.20;;;0.50;;
12970;SDS011;6550;48.650;8.774;2024-02-23T02:13:13;0.47;;;0.40;;
12970;SDS011;6550;48.650;8.774;2024-02-23T02:15:40;2.13;;;0.70;;
12970;SDS011;6550;48.650;8.774;2024-02-23T02:18:10;1.13;;;0.37;;
12970;SDS011;6550;48.650;8.774;2024-02-23T02:20:37;2.90;;;0.50;;
12970;SDS011;6550;48.650;8.774;2024-02-23T02:23:16;0.73;;;0.23;;
12970;SDS011;6550;48.650;8.774;2024-02-23T02:25:52;1.50;;;0.50;;
12970;SDS011;6550;48.650;8.774;2024-02-23T02:28:22;0.60;;;0.40;;
12970;SDS011;6550;48.650;8.774;2024-02-23T02:30:50;3.30;;;0.40;;
12970;SDS011;6550;48.650;8.774;2024-02-23T02:33:20;1.30;;;0.40;;
12970;SDS011;6550;48.650;8.774;2024-02-23T02:35:48;1.00;;;0.40;;
12970;SDS011;6550;48.650;8.774;2024-02-23T02:38:16;0.47;;;0.20;;
12970;SDS011;6550;48.650;8.774;2024-02-23T02:40:47;0.93;;;0.43;;
12970;SDS011;6550;48.650;8.774;2024-02-23T02:43:14;1.00;;;0.47;;
12970;SDS011;6550;48.650;8.774;2024-02-23T02:45:41;1.50;;;0.43;;
12970;SDS011;6550;48.650;8.774;2024-02-23T02:48:08;0.63;;;0.30;;
12970;SDS011;6550;48.650;8.774;2024-02-23T02:50:37;2.57;;;0.77;;
12970;SDS011;6550;48.650;8.774;2024-02-23T02:53:06;1.63;;;0.50;;
12970;SDS011;6550;48.650;8.774;2024-02-23T02:55:33;1.30;;;0.50;;
12970;SDS011;6550;48.650;8.774;2024-02-23T02:58:00;0.93;;;0.20;;
12970;SDS011;6550;48.650;8.774;2024-02-23T03:00:31;0.20;;;0.20;;
12970;SDS011;6550;48.650;8.774;2024-02-23T03:02:58;0.50;;;0.37;;
12970;SDS011;6550;48.650;8.774;2024-02-23T03:05:25;1.57;;;0.40;;
12970;SDS011;6550;48.650;8.774;2024-02-23T03:07:52;0.63;;;0.43;;
12970;SDS011;6550;48.650;8.774;2024-02-23T03:10:19;1.93;;;0.53;;
12970;SDS011;6550;48.650;8.774;2024-02-23T03:12:46;1.53;;;0.37;;
12970;SDS011;6550;48.650;8.774;2024-02-23T03:15:12;0.40;;;0.20;;
12970;SDS011;6550;48.650;8.774;2024-02-23T03:17:39;0.30;;;0.30;;
12970;SDS011;6550;48.650;8.774;2024-02-23T03:20:09;0.57;;;0.23;;
12970;SDS011;6550;48.650;8.774;2024-02-23T03:22:39;0.70;;;0.40;;
12970;SDS011;6550;48.650;8.774;2024-02-23T03:25:06;0.87;;;0.40;;
12970;SDS011;6550;48.650;8.774;2024-02-23T03:27:36;1.93;;;0.30;;
12970;SDS011;6550;48.650;8.774;2024-02-23T03:30:03;1.20;;;0.40;;
12970;SDS011;6550;48.650;8.774;2024-02-23T03:32:31;1.03;;;0.37;;
12970;SDS011;6550;48.650;8.774;2024-02-23T03:35:03;4.70;;;0.40;;
12970;SDS011;6550;48.650;8.774;2024-02-23T03:37:30;2.33;;;0.43;;
12970;SDS011;6550;48.650;8.774;2024-02-23T03:40:02;0.70;;;0.40;;
12970;SDS011;6550;48.650;8.774;2024-02-23T03:42:31;2.87;;;0.47;;
12970;SDS011;6550;48.650;8.774;2024-02-23T03:44:58;1.55;;;0.40;;
12970;SDS011;6550;48.650;8.774;2024-02-23T03:47:25;1.63;;;0.37;;
12970;SDS011;6550;48.650;8.774;2024-02-23T03:49:52;1.33;;;0.20;;
12970;SDS011;6550;48.650;8.774;2024-02-23T03:52:18;0.93;;;0.27;;
12970;SDS011;6550;48.650;8.774;2024-02-23T03:54:48;2.37;;;0.47;;
12970;SDS011;6550;48.650;8.774;2024-02-23T03:57:16;0.37;;;0.30;;
12970;SDS011;6550;48.650;8.774;2024-02-23T03:59:52;1.20;;;0.20;;
12970;SDS011;6550;48.650;8.774;2024-02-23T04:02:22;1.90;;;0.70;;
12970;SDS011;6550;48.650;8.774;2024-02-23T04:04:49;1.13;;;0.30;;
12970;SDS011;6550;48.650;8.774;2024-02-23T04:07:16;0.50;;;0.40;;
12970;SDS011;6550;48.650;8.774;2024-02-23T04:09:43;0.73;;;0.50;;
12970;SDS011;6550;48.650;8.774;2024-02-23T04:12:10;1.03;;;0.50;;
12970;SDS011;6550;48.650;8.774;2024-02-23T04:14:39;0.43;;;0.20;;
12970;SDS011;6550;48.650;8.774;2024-02-23T04:17:07;1.73;;;0.50;;
12970;SDS011;6550;48.650;8.774;2024-02-23T04:19:33;2.00;;;0.40;;
12970;SDS011;6550;48.650;8.774;2024-02-23T04:22:00;0.67;;;0.40;;
12970;SDS011;6550;48.650;8.774;2024-02-23T04:24:27;0.70;;;0.30;;
12970;SDS011;6550;48.650;8.774;2024-02-23T04:26:58;1.37;;;0.23;;
12970;SDS011;6550;48.650;8.774;2024-02-23T04:29:25;0.30;;;0.30;;
12970;SDS011;6550;48.650;8.774;2024-02-23T04:31:56;2.10;;;0.53;;
12970;SDS011;6550;48.650;8.774;2024-02-23T04:34:26;0.50;;;0.40;;
12970;SDS011;6550;48.650;8.774;2024-02-23T04:36:57;2.70;;;0.70;;
12970;SDS011;6550;48.650;8.774;2024-02-23T04:39:29;0.30;;;0.30;;
12970;SDS011;6550;48.650;8.774;2024-02-23T04:41:56;0.77;;;0.30;;
12970;SDS011;6550;48.650;8.774;2024-02-23T04:44:22;3.53;;;0.70;;
12970;SDS011;6550;48.650;8.774;2024-02-23T04:46:51;1.97;;;0.40;;
12970;SDS011;6550;48.650;8.774;2024-02-23T04:49:18;1.27;;;0.50;;
12970;SDS011;6550;48.650;8.774;2024-02-23T04:51:47;0.73;;;0.47;;
12970;SDS011;6550;48.650;8.774;2024-02-23T04:54:14;1.60;;;0.53;;
12970;SDS011;6550;48.650;8.774;2024-02-23T04:56:41;1.50;;;0.30;;
12970;SDS011;6550;48.650;8.774;2024-02-23T04:59:10;1.13;;;0.50;;
12970;SDS011;6550;48.650;8.774;2024-02-23T05:01:42;0.50;;;0.50;;
12970;SDS011;6550;48.650;8.774;2024-02-23T05:04:09;0.82;;;0.47;;
12970;SDS011;6550;48.650;8.774;2024-02-23T05:06:36;1.43;;;0.30;;
12970;SDS011;6550;48.650;8.774;2024-02-23T05:09:03;0.20;;;0.20;;
12970;SDS011;6550;48.650;8.774;2024-02-23T05:11:30;1.20;;;0.30;;
12970;SDS011;6550;48.650;8.774;2024-02-23T05:13:56;0.60;;;0.30;;
12970;SDS011;6550;48.650;8.774;2024-02-23T05:16:23;0.30;;;0.30;;
12970;SDS011;6550;48.650;8.774;2024-02-23T05:18:50;1.40;;;0.47;;
12970;SDS011;6550;48.650;8.774;2024-02-23T05:21:17;0.80;;;0.50;;
12970;SDS011;6550;48.650;8.774;2024-02-23T05:23:44;1.83;;;0.50;;
12970;SDS011;6550;48.650;8.774;2024-02-23T05:26:12;1.90;;;0.50;;
12970;SDS011;6550;48.650;8.774;2024-02-23T05:28:41;1.80;;;0.47;;
12970;SDS011;6550;48.650;8.774;2024-02-23T05:31:10;0.87;;;0.37;;
12970;SDS011;6550;48.650;8.774;2024-02-23T05:33:37;2.63;;;0.70;;
12970;SDS011;6550;48.650;8.774;2024-02-23T05:36:10;0.77;;;0.50;;
12970;SDS011;6550;48.650;8.774;2024-02-23T05:38:39;1.03;;;0.30;;
12970;SDS011;6550;48.650;8.774;2024-02-23T05:41:12;0.80;;;0.30;;
12970;SDS011;6550;48.650;8.774;2024-02-23T05:43:42;1.40;;;0.30;;
12970;SDS011;6550;48.650;8.774;2024-02-23T05:46:11;1.33;;;0.40;;
12970;SDS011;6550;48.650;8.774;2024-02-23T05:48:37;2.50;;;0.50;;
12970;SDS011;6550;48.650;8.774;2024-02-23T05:51:04;1.47;;;0.60;;
12970;SDS011;6550;48.650;8.774;2024-02-23T05:53:31;2.27;;;0.30;;
12970;SDS011;6550;48.650;8.774;2024-02-23T05:55:59;2.10;;;0.45;;
12970;SDS011;6550;48.650;8.774;2024-02-23T05:58:26;1.10;;;0.50;;
12970;SDS011;6550;48.650;8.774;2024-02-23T06:00:55;0.60;;;0.40;;
12970;SDS011;6550;48.650;8.774;2024-02-23T06:03:24;0.70;;;0.40;;
12970;SDS011;6550;48.650;8.774;2024-02-23T06:05:54;0.30;;;0.30;;
12970;SDS011;6550;48.650;8.774;2024-02-23T06:08:23;0.87;;;0.40;;
12970;SDS011;6550;48.650;8.774;2024-02-23T06:10:50;1.30;;;0.33;;
12970;SDS011;6550;48.650;8.774;2024-02-23T06:13:19;0.30;;;0.30;;
12970;SDS011;6550;48.650;8.774;2024-02-23T06:15:48;0.43;;;0.30;;
12970;SDS011;6550;48.650;8.774;2024-02-23T06:18:15;1.75;;;0.30;;
12970;SDS011;6550;48.650;8.774;2024-02-23T06:20:42;0.33;;;0.20;;
12970;SDS011;6550;48.650;8.774;2024-02-23T06:23:14;0.43;;;0.30;;
12970;SDS011;6550;48.650;8.774;2024-02-23T06:25:41;0.40;;;0.40;;
12970;SDS011;6550;48.650;8.774;2024-02-23T06:28:10;1.17;;;0.43;;
12970;SDS011;6550;48.650;8.774;2024-02-23T06:30:37;2.10;;;0.40;;
12970;SDS011;6550;48.650;8.774;2024-02-23T06:33:08;0.63;;;0.37;;
12970;SDS011;6550;48.650;8.774;2024-02-23T06:35:35;0.73;;;0.30;;
12970;SDS011;6550;48.650;8.774;2024-02-23T06:38:02;0.87;;;0.30;;
12970;SDS011;6550;48.650;8.774;2024-02-23T06:40:29;1.13;;;0.50;;
12970;SDS011;6550;48.650;8.774;2024-02-23T06:43:11;0.87;;;0.40;;
12970;SDS011;6550;48.650;8.774;2024-02-23T06:45:38;0.70;;;0.33;;
12970;SDS011;6550;48.650;8.774;2024-02-23T06:48:07;1.40;;;0.50;;
12970;SDS011;6550;48.650;8.774;2024-02-23T06:50:35;1.00;;;0.70;;
12970;SDS011;6550;48.650;8.774;2024-02-23T06:53:02;1.43;;;0.40;;
12970;SDS011;6550;48.650;8.774;2024-02-23T06:55:34;2.37;;;0.40;;
12970;SDS011;6550;48.650;8.774;2024-02-23T06:58:02;1.77;;;0.60;;
12970;SDS011;6550;48.650;8.774;2024-02-23T07:00:33;0.40;;;0.40;;
12970;SDS011;6550;48.650;8.774;2024-02-23T07:03:00;1.50;;;0.60;;
12970;SDS011;6550;48.650;8.774;2024-02-23T07:05:30;2.83;;;1.13;;
12970;SDS011;6550;48.650;8.774;2024-02-23T07:07:57;0.97;;;0.60;;
12970;SDS011;6550;48.650;8.774;2024-02-23T07:10:23;0.83;;;0.60;;
12970;SDS011;6550;48.650;8.774;2024-02-23T07:12:51;0.75;;;0.60;;
12970;SDS011;6550;48.650;8.774;2024-02-23T07:15:22;0.60;;;0.60;;
12970;SDS011;6550;48.650;8.774;2024-02-23T07:17:50;2.03;;;0.70;;
12970;SDS011;6550;48.650;8.774;2024-02-23T07:20:18;1.63;;;0.70;;
12970;SDS011;6550;48.650;8.774;2024-02-23T07:22:47;2.17;;;1.00;;
12970;SDS011;6550;48.650;8.774;2024-02-23T07:25:18;2.40;;;0.90;;
12970;SDS011;6550;48.650;8.774;2024-02-23T07:27:48;1.47;;;0.70;;
12970;SDS011;6550;48.650;8.774;2024-02-23T07:30:15;2.27;;;0.90;;
12970;SDS011;6550;48.650;8.774;2024-02-23T07:32:45;1.03;;;0.90;;
12970;SDS011;6550;48.650;8.774;2024-02-23T07:35:18;3.27;;;1.00;;
12970;SDS011;6550;48.650;8.774;2024-02-23T07:37:45;1.53;;;1.07;;
12970;SDS011;6550;48.650;8.774;2024-02-23T07:40:12;2.00;;;1.00;;
12970;SDS011;6550;48.650;8.774;2024-02-23T07:42:47;2.85;;;1.08;;
12970;SDS011;6550;48.650;8.774;2024-02-23T07:45:16;2.97;;;1.20;;
12970;SDS011;6550;48.650;8.774;2024-02-23T07:47:43;6.80;;;1.80;;
12970;SDS011;6550;48.650;8.774;2024-02-23T07:50:10;1.20;;;1.00;;
12970;SDS011;6550;48.650;8.774;2024-02-23T07:52:41;4.00;;;1.33;;
12970;SDS011;6550;48.650;8.774;2024-02-23T07:55:08;4.13;;;1.40;;
12970;SDS011;6550;48.650;8.774;2024-02-23T07:57:42;2.13;;;1.37;;
12970;SDS011;6550;48.650;8.774;2024-02-23T08:00:09;3.97;;;1.30;;
12970;SDS011;6550;48.650;8.774;2024-02-23T08:02:36;1.90;;;1.40;;
12970;SDS011;6550;48.650;8.774;2024-02-23T08:05:08;5.60;;;1.63;;
12970;SDS011;6550;48.650;8.774;2024-02-23T08:07:36;2.00;;;1.40;;
12970;SDS011;6550;48.650;8.774;2024-02-23T08:10:05;7.17;;;1.90;;
12970;SDS011;6550;48.650;8.774;2024-02-23T08:12:33;4.43;;;1.37;;
12970;SDS011;6550;48.650;8.774;2024-02-23T08:15:07;2.03;;;1.23;;
12970;SDS011;6550;48.650;8.774;2024-02-23T08:17:34;2.67;;;1.50;;
12970;SDS011;6550;48.650;8.774;2024-02-23T08:20:04;3.90;;;1.70;;
12970;SDS011;6550;48.650;8.774;2024-02-23T08:22:33;3.80;;;1.70;;
12970;SDS011;6550;48.650;8.774;2024-02-23T08:25:03;3.53;;;1.77;;
12970;SDS011;6550;48.650;8.774;2024-02-23T08:27:34;5.27;;;1.77;;
12970;SDS011;6550;48.650;8.774;2024-02-23T08:30:01;2.90;;;1.60;;
12970;SDS011;6550;48.650;8.774;2024-02-23T08:32:29;2.80;;;1.40;;
12970;SDS011;6550;48.650;8.774;2024-02-23T08:34:56;4.37;;;1.57;;
12970;SDS011;6550;48.650;8.774;2024-02-23T08:37:26;4.43;;;1.83;;
12970;SDS011;6550;48.650;8.774;2024-02-23T08:39:53;3.13;;;1.90;;
12970;SDS011;6550;48.650;8.774;2024-02-23T08:42:22;4.43;;;1.60;;
12970;SDS011;6550;48.650;8.774;2024-02-23T08:44:50;3.50;;;1.87;;
12970;SDS011;6550;48.650;8.774;2024-02-23T08:47:16;8.33;;;1.63;;
12970;SDS011;6550;48.650;8.774;2024-02-23T08:49:44;2.23;;;1.30;;
12970;SDS011;6550;48.650;8.774;2024-02-23T08:52:11;3.10;;;1.87;;
12970;SDS011;6550;48.650;8.774;2024-02-23T08:54:40;2.90;;;1.50;;
12970;SDS011;6550;48.650;8.774;2024-02-23T08:57:06;2.00;;;1.63;;
12970;SDS011;6550;48.650;8.774;2024-02-23T08:59:33;3.77;;;1.67;;
12970;SDS011;6550;48.650;8.774;2024-02-23T09:02:00;5.93;;;1.93;;
12970;SDS011;6550;48.650;8.774;2024-02-23T09:04:27;3.40;;;1.80;;
12970;SDS011;6550;48.650;8.774;2024-02-23T09:06:56;3.30;;;1.33;;
12970;SDS011;6550;48.650;8.774;2024-02-23T09:09:25;2.90;;;1.37;;
12970;SDS011;6550;48.650;8.774;2024-02-23T09:11:54;3.60;;;1.40;;
12970;SDS011;6550;48.650;8.774;2024-02-23T09:14:26;5.53;;;1.63;;
12970;SDS011;6550;48.650;8.774;2024-02-23T09:16:53;2.30;;;1.23;;
12970;SDS011;6550;48.650;8.774;2024-02-23T09:19:20;1.67;;;1.00;;
12970;SDS011;6550;48.650;8.774;2024-02-23T09:21:47;1.93;;;1.30;;
12970;SDS011;6550;48.650;8.774;2024-02-23T09:24:16;0.60;;;0.60;;
12970;SDS011;6550;48.650;8.774;2024-02-23T09:26:46;3.23;;;1.30;;
12970;SDS011;6550;48.650;8.774;2024-02-23T09:29:13;1.90;;;0.93;;
12970;SDS011;6550;48.650;8.774;2024-02-23T09:31:43;2.60;;;1.07;;
12970;SDS011;6550;48.650;8.774;2024-02-23T09:34:12;1.47;;;0.70;;
12970;SDS011;6550;48.650;8.774;2024-02-23T09:36:39;2.13;;;1.23;;
12970;SDS011;6550;48.650;8.774;2024-02-23T09:39:14;1.37;;;0.80;;
12970;SDS011;6550;48.650;8.774;2024-02-23T09:41:41;2.03;;;1.00;;
12970;SDS011;6550;48.650;8.774;2024-02-23T09:44:09;2.07;;;1.10;;
12970;SDS011;6550;48.650;8.774;2024-02-23T09:46:38;2.30;;;1.00;;
12970;SDS011;6550;48.650;8.774;2024-02-23T09:49:05;6.47;;;1.10;;
12970;SDS011;6550;48.650;8.774;2024-02-23T09:51:34;2.93;;;1.40;;
12970;SDS011;6550;48.650;8.774;2024-02-23T09:54:02;2.53;;;0.97;;
12970;SDS011;6550;48.650;8.774;2024-02-23T09:56:34;4.40;;;1.20;;
12970;SDS011;6550;48.650;8.774;2024-02-23T09:59:03;3.03;;;1.23;;
12970;SDS011;6550;48.650;8.774;2024-02-23T10:01:32;3.77;;;1.23;;
12970;SDS011;6550;48.650;8.774;2024-02-23T10:04:00;2.33;;;1.00;;
12970;SDS011;6550;48.650;8.774;2024-02-23T10:06:28;3.53;;;1.00;;
12970;SDS011;6550;48.650;8.774;2024-02-23T10:08:57;3.03;;;1.20;;
12970;SDS011;6550;48.650;8.774;2024-02-23T10:11:26;2.53;;;1.10;;
12970;SDS011;6550;48.650;8.774;2024-02-23T10:13:56;3.17;;;1.20;;
12970;SDS011;6550;48.650;8.774;2024-02-23T10:16:23;1.53;;;0.80;;
12970;SDS011;6550;48.650;8.774;2024-02-23T10:18:51;10.30;;;1.10;;
12970;SDS011;6550;48.650;8.774;2024-02-23T10:21:20;3.83;;;0.93;;
12970;SDS011;6550;48.650;8.774;2024-02-23T10:23:47;2.37;;;0.70;;
12970;SDS011;6550;48.650;8.774;2024-02-23T10:26:17;1.63;;;1.03;;
12970;SDS011;6550;48.650;8.774;2024-02-23T10:28:46;3.20;;;1.10;;
12970;SDS011;6550;48.650;8.774;2024-02-23T10:31:13;1.80;;;0.93;;
12970;SDS011;6550;48.650;8.774;2024-02-23T10:33:41;2.80;;;1.07;;
12970;SDS011;6550;48.650;8.774;2024-02-23T10:36:08;3.80;;;1.30;;
12970;SDS011;6550;48.650;8.774;2024-02-23T10:38:38;2.97;;;1.17;;
12970;SDS011;6550;48.650;8.774;2024-02-23T10:41:08;2.37;;;0.90;;
12970;SDS011;6550;48.650;8.774;2024-02-23T10:43:41;1.70;;;0.87;;
12970;SDS011;6550;48.650;8.774;2024-02-23T10:46:15;2.87;;;1.23;;
12970;SDS011;6550;48.650;8.774;2024-02-23T10:48:43;4.37;;;1.30;;
12970;SDS011;6550;48.650;8.774;2024-02-23T10:51:13;1.50;;;0.70;;
12970;SDS011;6550;48.650;8.774;2024-02-23T10:53:46;1.47;;;0.73;;
12970;SDS011;6550;48.650;8.774;2024-02-23T10:56:17;3.67;;;1.17;;
12970;SDS011;6550;48.650;8.774;2024-02-23T10:58:45;3.70;;;1.00;;
12970;SDS011;6550;48.650;8.774;2024-02-23T11:01:12;2.23;;;0.80;;
12970;SDS011;6550;48.650;8.774;2024-02-23T11:03:42;4.47;;;1.30;;
12970;SDS011;6550;48.650;8.774;2024-02-23T11:06:13;4.17;;;1.50;;
12970;SDS011;6550;48.650;8.774;2024-02-23T11:08:42;4.40;;;1.27;;
12970;SDS011;6550;48.650;8.774;2024-02-23T11:11:09;1.80;;;1.03;;
12970;SDS011;6550;48.650;8.774;2024-02-23T11:13:38;4.27;;;1.20;;
12970;SDS011;6550;48.650;8.774;2024-02-23T11:16:05;2.63;;;0.87;;
12970;SDS011;6550;48.650;8.774;2024-02-23T11:18:39;1.90;;;0.70;;
12970;SDS011;6550;48.650;8.774;2024-02-23T11:21:09;2.20;;;0.93;;
12970;SDS011;6550;48.650;8.774;2024-02-23T11:23:43;1.60;;;0.73;;
12970;SDS011;6550;48.650;8.774;2024-02-23T11:26:17;4.43;;;1.17;;
12970;SDS011;6550;48.650;8.774;2024-02-23T11:31:15;2.03;;;0.90;;
12970;SDS011;6550;48.650;8.774;2024-02-23T11:33:48;1.10;;;0.70;;
12970;SDS011;6550;48.650;8.774;2024-02-23T11:38:56;3.80;;;1.20;;
12970;SDS011;6550;48.650;8.774;2024-02-23T11:41:26;1.53;;;1.00;;
12970;SDS011;6550;48.650;8.774;2024-02-23T11:43:54;4.72;;;1.10;;
12970;SDS011;6550;48.650;8.774;2024-02-23T11:46:22;3.50;;;1.30;;
12970;SDS011;6550;48.650;8.774;2024-02-23T11:48:51;5.20;;;1.00;;
12970;SDS011;6550;48.650;8.774;2024-02-23T11:51:22;3.50;;;1.10;;
12970;SDS011;6550;48.650;8.774;2024-02-23T11:53:50;3.00;;;1.00;;
12970;SDS011;6550;48.650;8.774;2024-02-23T11:56:22;5.40;;;1.40;;
12970;SDS011;6550;48.650;8.774;2024-02-23T11:58:49;4.60;;;0.97;;
12970;SDS011;6550;48.650;8.774;2024-02-23T12:01:15;5.00;;;1.30;;
12970;SDS011;6550;48.650;8.774;2024-02-23T12:03:42;3.57;;;1.00;;
12970;SDS011;6550;48.650;8.774;2024-02-23T12:06:11;2.63;;;1.13;;
12970;SDS011;6550;48.650;8.774;2024-02-23T12:08:39;3.47;;;1.13;;
12970;SDS011;6550;48.650;8.774;2024-02-23T12:11:08;4.27;;;1.20;;
12970;SDS011;6550;48.650;8.774;2024-02-23T12:13:40;5.27;;;1.53;;
12970;SDS011;6550;48.650;8.774;2024-02-23T12:16:16;4.03;;;1.07;;
12970;SDS011;6550;48.650;8.774;2024-02-23T12:18:43;5.57;;;1.10;;
12970;SDS011;6550;48.650;8.774;2024-02-23T12:21:12;3.20;;;1.27;;
12970;SDS011;6550;48.650;8.774;2024-02-23T12:23:44;3.77;;;1.40;;
12970;SDS011;6550;48.650;8.774;2024-02-23T12:26:15;3.03;;;1.13;;
12970;SDS011;6550;48.650;8.774;2024-02-23T12:28:43;3.23;;;1.63;;
12970;SDS011;6550;48.650;8.774;2024-02-23T12:31:13;4.33;;;1.20;;
12970;SDS011;6550;48.650;8.774;2024-02-23T12:33:40;5.00;;;1.30;;
12970;SDS011;6550;48.650;8.774;2024-02-23T12:36:14;2.63;;;1.10;;
12970;SDS011;6550;48.650;8.774;2024-02-23T12:38:44;6.00;;;1.20;;
12970;SDS011;6550;48.650;8.774;2024-02-23T12:41:11;3.17;;;1.30;;
12970;SDS011;6550;48.650;8.774;2024-02-23T12:43:38;4.57;;;1.70;;
12970;SDS011;6550;48.650;8.774;2024-02-23T12:46:11;2.37;;;1.10;;
12970;SDS011;6550;48.650;8.774;2024-02-23T12:48:40;2.35;;;1.20;;
12970;SDS011;6550;48.650;8.774;2024-02-23T12:51:10;7.63;;;1.53;;
12970;SDS011;6550;48.650;8.774;2024-02-23T12:53:42;4.70;;;1.10;;
12970;SDS011;6550;48.650;8.774;2024-02-23T12:56:10;2.57;;;1.10;;
12970;SDS011;6550;48.650;8.774;2024-02-23T12:58:38;2.70;;;1.10;;
12970;SDS011;6550;48.650;8.774;2024-02-23T13:01:08;3.57;;;1.30;;
12970;SDS011;6550;48.650;8.774;2024-02-23T13:03:36;1.00;;;0.73;;
12970;SDS011;6550;48.650;8.774;2024-02-23T13:06:04;3.43;;;0.90;;
12970;SDS011;6550;48.650;8.774;2024-02-23T13:08:32;2.90;;;1.15;;
12970;SDS011;6550;48.650;8.774;2024-02-23T13:11:00;2.50;;;1.07;;
12970;SDS011;6550;48.650;8.774;2024-02-23T13:13:27;6.10;;;1.00;;
12970;SDS011;6550;48.650;8.774;2024-02-23T13:15:55;2.10;;;1.07;;
12970;SDS011;6550;48.650;8.774;2024-02-23T13:18:23;3.57;;;0.90;;
12970;SDS011;6550;48.650;8.774;2024-02-23T13:20:50;1.70;;;0.90;;
12970;SDS011;6550;48.650;8.774;2024-02-23T13:23:17;2.37;;;0.90;;
12970;SDS011;6550;48.650;8.774;2024-02-23T13:25:45;2.57;;;0.80;;
12970;SDS011;6550;48.650;8.774;2024-02-23T13:28:14;4.07;;;1.10;;
12970;SDS011;6550;48.650;8.774;2024-02-23T13:30:43;6.43;;;1.40;;
12970;SDS011;6550;48.650;8.774;2024-02-23T13:33:10;3.07;;;1.13;;
12970;SDS011;6550;48.650;8.774;2024-02-23T13:35:38;4.00;;;0.90;;
12970;SDS011;6550;48.650;8.774;2024-02-23T13:38:06;2.80;;;1.20;;
12970;SDS011;6550;48.650;8.774;2024-02-23T13:40:35;2.03;;;0.70;;
12970;SDS011;6550;48.650;8.774;2024-02-23T13:43:04;1.07;;;0.67;;
12970;SDS011;6550;48.650;8.774;2024-02-23T13:45:32;2.20;;;1.07;;
12970;SDS011;6550;48.650;8.774;2024-02-23T13:48:00;2.50;;;1.10;;
12970;SDS011;6550;48.650;8.774;2024-02-23T13:50:28;3.05;;;1.35;;
12970;SDS011;6550;48.650;8.774;2024-02-23T13:52:56;1.70;;;0.97;;
12970;SDS011;6550;48.650;8.774;2024-02-23T13:55:25;3.77;;;0.70;;
12970;SDS011;6550;48.650;8.774;2024-02-23T13:57:52;3.43;;;1.10;;
12970;SDS011;6550;48.650;8.774;2024-02-23T14:00:19;1.93;;;1.03;;
12970;SDS011;6550;48.650;8.774;2024-02-23T14:02:49;3.70;;;1.30;;
12970;SDS011;6550;48.650;8.774;2024-02-23T14:05:20;2.17;;;0.80;;
12970;SDS011;6550;48.650;8.774;2024-02-23T14:07:48;3.27;;;1.00;;
12970;SDS011;6550;48.650;8.774;2024-02-23T14:10:20;1.50;;;0.90;;
12970;SDS011;6550;48.650;8.774;2024-02-23T14:12:46;4.90;;;1.13;;
12970;SDS011;6550;48.650;8.774;2024-02-23T14:15:16;2.77;;;1.20;;
12970;SDS011;6550;48.650;8.774;2024-02-23T14:17:43;2.93;;;1.30;;
12970;SDS011;6550;48.650;8.774;2024-02-23T14:20:10;3.53;;;1.50;;
12970;SDS011;6550;48.650;8.774;2024-02-23T14:22:38;2.17;;;1.10;;
12970;SDS011;6550;48.650;8.774;2024-02-23T14:25:06;2.00;;;1.03;;
12970;SDS011;6550;48.650;8.774;2024-02-23T14:27:34;3.47;;;1.20;;
12970;SDS011;6550;48.650;8.774;2024-02-23T14:30:00;3.80;;;1.20;;
12970;SDS011;6550;48.650;8.774;2024-02-23T14:32:28;1.60;;;0.80;;
12970;SDS011;6550;48.650;8.774;2024-02-23T14:34:55;2.00;;;1.10;;
12970;SDS011;6550;48.650;8.774;2024-02-23T14:37:23;3.50;;;2.07;;
12970;SDS011;6550;48.650;8.774;2024-02-23T14:39:50;3.77;;;1.20;;
12970;SDS011;6550;48.650;8.774;2024-02-23T14:42:18;1.67;;;1.20;;
12970;SDS011;6550;48.650;8.774;2024-02-23T14:44:47;4.07;;;1.47;;
12970;SDS011;6550;48.650;8.774;2024-02-23T14:47:16;2.57;;;1.23;;
12970;SDS011;6550;48.650;8.774;2024-02-23T14:49:57;3.00;;;1.20;;
12970;SDS011;6550;48.650;8.774;2024-02-23T14:52:24;4.53;;;1.30;;
12970;SDS011;6550;48.650;8.774;2024-02-23T14:54:51;5.30;;;1.30;;
12970;SDS011;6550;48.650;8.774;2024-02-23T14:57:17;2.00;;;1.10;;
12970;SDS011;6550;48.650;8.774;2024-02-23T14:59:45;4.90;;;1.50;;
12970;SDS011;6550;48.650;8.774;2024-02-23T15:02:18;3.30;;;1.50;;
12970;SDS011;6550;48.650;8.774;2024-02-23T15:04:52;3.20;;;1.30;;
12970;SDS011;6550;48.650;8.774;2024-02-23T15:07:24;5.33;;;1.70;;
12970;SDS011;6550;48.650;8.774;2024-02-23T15:09:55;3.93;;;1.47;;
12970;SDS011;6550;48.650;8.774;2024-02-23T15:12:22;3.40;;;1.60;;
12970;SDS011;6550;48.650;8.774;2024-02-23T15:14:54;2.57;;;1.47;;